sensor_id;sensor_type;location;lat;lon;timestamp;temperature;humidity
2995;DHT22;35277;49.890;8.222;2024-02-16T00:01:10;22.70;69.10
2995;DHT22;35277;49.890;8.222;2024-02-16T00:03:40;22.70;69.10
2995;DHT22;35277;49.890;8.222;2024-02-16T00:06:07;22.70;69.10
2995;DHT22;35277;49.890;8.222;2024-02-16T00:08:36;22.70;69.00
2995;DHT22;35277;49.890;8.222;2024-02-16T00:11:05;22.70;69.10
2995;DHT22;35277;49.890;8.222;2024-02-16T00:13:33;22.70;69.10
2995;DHT22;35277;49.890;8.222;2024-02-16T00:16:03;22.70;69.10
2995;DHT22;35277;49.890;8.222;2024-02-16T00:18:31;22.70;69.10
2995;DHT22;35277;49.890;8.222;2024-02-16T00:20:59;22.70;69.10
2995;DHT22;35277;49.890;8.222;2024-02-16T00:23:28;22.70;69.10
2995;DHT22;35277;49.890;8.222;2024-02-16T00:25:56;22.70;69.10
2995;DHT22;35277;49.890;8.222;2024-02-16T00:28:23;22.70;69.00
2995;DHT22;35277;49.890;8.222;2024-02-16T00:30:51;22.70;69.00
2995;DHT22;35277;49.890;8.222;2024-02-16T00:33:20;22.70;69.00
2995;DHT22;35277;49.890;8.222;2024-02-16T00:35:48;22.70;69.10
2995;DHT22;35277;49.890;8.222;2024-02-16T00:38:16;22.70;69.10
2995;DHT22;35277;49.890;8.222;2024-02-16T00:40:44;22.70;69.00
2995;DHT22;35277;49.890;8.222;2024-02-16T00:43:12;22.70;69.00
2995;DHT22;35277;49.890;8.222;2024-02-16T00:45:40;22.70;69.00
2995;DHT22;35277;49.890;8.222;2024-02-16T00:48:11;22.70;69.10
2995;DHT22;35277;49.890;8.222;2024-02-16T00:50:41;22.70;69.00
2995;DHT22;35277;49.890;8.222;2024-02-16T00:53:10;22.70;69.10
2995;DHT22;35277;49.890;8.222;2024-02-16T00:55:38;22.70;69.00
2995;DHT22;35277;49.890;8.222;2024-02-16T00:58:08;22.70;69.10
2995;DHT22;35277;49.890;8.222;2024-02-16T01:00:36;22.70;69.10
2995;DHT22;35277;49.890;8.222;2024-02-16T01:03:04;22.70;69.00
2995;DHT22;35277;49.890;8.222;2024-02-16T01:05:32;22.70;69.00
2995;DHT22;35277;49.890;8.222;2024-02-16T01:08:01;22.70;69.00
2995;DHT22;35277;49.890;8.222;2024-02-16T01:10:29;22.70;69.00
2995;DHT22;35277;49.890;8.222;2024-02-16T01:12:57;22.70;69.10
2995;DHT22;35277;49.890;8.222;2024-02-16T01:15:25;22.70;69.00
2995;DHT22;35277;49.890;8.222;2024-02-16T01:17:52;22.70;69.00
2995;DHT22;35277;49.890;8.222;2024-02-16T01:20:20;22.70;69.00
2995;DHT22;35277;49.890;8.222;2024-02-16T01:22:48;22.70;69.10
2995;DHT22;35277;49.890;8.222;2024-02-16T01:25:18;22.70;69.10
2995;DHT22;35277;49.890;8.222;2024-02-16T01:27:46;22.70;69.10
2995;DHT22;35277;49.890;8.222;2024-02-16T01:30:14;22.70;69.10
2995;DHT22;35277;49.890;8.222;2024-02-16T01:32:42;22.70;69.10
2995;DHT22;35277;49.890;8.222;2024-02-16T01:35:10;22.70;69.10
2995;DHT22;35277;49.890;8.222;2024-02-16T01:37:40;22.70;69.00
2995;DHT22;35277;49.890;8.222;2024-02-16T01:40:09;22.70;69.10
2995;DHT22;35277;49.890;8.222;2024-02-16T01:42:41;22.70;69.00
2995;DHT22;35277;49.890;8.222;2024-02-16T01:45:10;22.70;69.10
2995;DHT22;35277;49.890;8.222;2024-02-16T01:47:39;22.70;69.10
2995;DHT22;35277;49.890;8.222;2024-02-16T01:50:09;22.70;69.10
2995;DHT22;35277;49.890;8.222;2024-02-16T01:52:38;22.70;69.10
2995;DHT22;35277;49.890;8.222;2024-02-16T01:55:07;22.70;69.10
2995;DHT22;35277;49.890;8.222;2024-02-16T01:57:37;22.70;69.10
2995;DHT22;35277;49.890;8.222;2024-02-16T02:00:08;22.70;69.10
2995;DHT22;35277;49.890;8.222;2024-02-16T02:02:36;22.70;69.10
2995;DHT22;35277;49.890;8.222;2024-02-16T02:05:04;22.70;69.10
2995;DHT22;35277;49.890;8.222;2024-02-16T02:07:33;22.70;69.20
2995;DHT22;35277;49.890;8.222;2024-02-16T02:10:01;22.70;69.20
2995;DHT22;35277;49.890;8.222;2024-02-16T02:12:30;22.70;69.20
2995;DHT22;35277;49.890;8.222;2024-02-16T02:14:58;22.70;69.20
2995;DHT22;35277;49.890;8.222;2024-02-16T02:17:27;22.70;69.20
2995;DHT22;35277;49.890;8.222;2024-02-16T02:19:55;22.70;69.30
2995;DHT22;35277;49.890;8.222;2024-02-16T02:22:25;22.70;69.20
2995;DHT22;35277;49.890;8.222;2024-02-16T02:24:53;22.70;69.30
2995;DHT22;35277;49.890;8.222;2024-02-16T02:27:22;22.70;69.30
2995;DHT22;35277;49.890;8.222;2024-02-16T02:29:50;22.70;69.30
2995;DHT22;35277;49.890;8.222;2024-02-16T02:32:18;22.70;69.30
2995;DHT22;35277;49.890;8.222;2024-02-16T02:34:46;22.70;69.30
2995;DHT22;35277;49.890;8.222;2024-02-16T02:37:14;22.70;69.30
2995;DHT22;35277;49.890;8.222;2024-02-16T02:39:43;22.70;69.30
2995;DHT22;35277;49.890;8.222;2024-02-16T02:42:11;22.70;69.30
2995;DHT22;35277;49.890;8.222;2024-02-16T02:44:39;22.70;69.30
2995;DHT22;35277;49.890;8.222;2024-02-16T02:47:06;22.70;69.30
2995;DHT22;35277;49.890;8.222;2024-02-16T02:49:34;22.70;69.30
2995;DHT22;35277;49.890;8.222;2024-02-16T02:52:03;22.70;69.30
2995;DHT22;35277;49.890;8.222;2024-02-16T02:54:33;22.70;69.30
2995;DHT22;35277;49.890;8.222;2024-02-16T02:57:03;22.70;69.30
2995;DHT22;35277;49.890;8.222;2024-02-16T02:59:31;22.70;69.30
2995;DHT22;35277;49.890;8.222;2024-02-16T03:01:58;22.70;69.30
2995;DHT22;35277;49.890;8.222;2024-02-16T03:04:26;22.70;69.40
2995;DHT22;35277;49.890;8.222;2024-02-16T03:06:54;22.70;69.40
2995;DHT22;35277;49.890;8.222;2024-02-16T03:09:22;22.70;69.40
2995;DHT22;35277;49.890;8.222;2024-02-16T03:11:50;22.70;69.40
2995;DHT22;35277;49.890;8.222;2024-02-16T03:14:19;22.70;69.30
2995;DHT22;35277;49.890;8.222;2024-02-16T03:16:47;22.70;69.40
2995;DHT22;35277;49.890;8.222;2024-02-16T03:19:15;22.70;69.40
2995;DHT22;35277;49.890;8.222;2024-02-16T03:21:43;22.70;69.30
2995;DHT22;35277;49.890;8.222;2024-02-16T03:24:11;22.70;69.30
2995;DHT22;35277;49.890;8.222;2024-02-16T03:26:39;22.70;69.30
2995;DHT22;35277;49.890;8.222;2024-02-16T03:29:06;22.70;69.30
2995;DHT22;35277;49.890;8.222;2024-02-16T03:31:36;22.70;69.40
2995;DHT22;35277;49.890;8.222;2024-02-16T03:34:04;22.70;69.40
2995;DHT22;35277;49.890;8.222;2024-02-16T03:36:33;22.70;69.40
2995;DHT22;35277;49.890;8.222;2024-02-16T03:39:01;22.70;69.40
2995;DHT22;35277;49.890;8.222;2024-02-16T03:41:29;22.70;69.40
2995;DHT22;35277;49.890;8.222;2024-02-16T03:43:57;22.70;69.40
2995;DHT22;35277;49.890;8.222;2024-02-16T03:46:25;22.70;69.40
2995;DHT22;35277;49.890;8.222;2024-02-16T03:48:54;22.70;69.40
2995;DHT22;35277;49.890;8.222;2024-02-16T03:51:22;22.70;69.40
2995;DHT22;35277;49.890;8.222;2024-02-16T03:53:50;22.70;69.40
2995;DHT22;35277;49.890;8.222;2024-02-16T03:56:21;22.70;69.40
2995;DHT22;35277;49.890;8.222;2024-02-16T03:58:48;22.70;69.40
2995;DHT22;35277;49.890;8.222;2024-02-16T04:01:16;22.70;69.40
2995;DHT22;35277;49.890;8.222;2024-02-16T04:03:44;22.70;69.40
2995;DHT22;35277;49.890;8.222;2024-02-16T04:06:13;22.70;69.40
2995;DHT22;35277;49.890;8.222;2024-02-16T04:08:41;22.70;69.40
2995;DHT22;35277;49.890;8.222;2024-02-16T04:11:11;22.70;69.50
2995;DHT22;35277;49.890;8.222;2024-02-16T04:13:39;22.70;69.50
2995;DHT22;35277;49.890;8.222;2024-02-16T04:16:07;22.70;69.50
2995;DHT22;35277;49.890;8.222;2024-02-16T04:18:35;22.70;69.50
2995;DHT22;35277;49.890;8.222;2024-02-16T04:21:03;22.70;69.40
2995;DHT22;35277;49.890;8.222;2024-02-16T04:23:32;22.70;69.50
2995;DHT22;35277;49.890;8.222;2024-02-16T04:26:00;22.70;69.50
2995;DHT22;35277;49.890;8.222;2024-02-16T04:28:28;22.70;69.50
2995;DHT22;35277;49.890;8.222;2024-02-16T04:30:56;22.70;69.50
2995;DHT22;35277;49.890;8.222;2024-02-16T04:33:24;22.70;69.50
2995;DHT22;35277;49.890;8.222;2024-02-16T04:35:52;22.70;69.60
2995;DHT22;35277;49.890;8.222;2024-02-16T04:38:20;22.70;69.50
2995;DHT22;35277;49.890;8.222;2024-02-16T04:40:49;22.70;69.50
2995;DHT22;35277;49.890;8.222;2024-02-16T04:43:17;22.70;69.50
2995;DHT22;35277;49.890;8.222;2024-02-16T04:45:45;22.70;69.60
2995;DHT22;35277;49.890;8.222;2024-02-16T04:48:13;22.70;69.60
2995;DHT22;35277;49.890;8.222;2024-02-16T04:50:41;22.70;69.50
2995;DHT22;35277;49.890;8.222;2024-02-16T04:53:08;22.70;69.50
2995;DHT22;35277;49.890;8.222;2024-02-16T04:55:36;22.70;69.50
2995;DHT22;35277;49.890;8.222;2024-02-16T04:58:05;22.70;69.60
2995;DHT22;35277;49.890;8.222;2024-02-16T05:00:36;22.70;69.50
2995;DHT22;35277;49.890;8.222;2024-02-16T05:03:05;22.70;69.50
2995;DHT22;35277;49.890;8.222;2024-02-16T05:05:33;22.70;69.60
2995;DHT22;35277;49.890;8.222;2024-02-16T05:08:01;22.70;69.50
2995;DHT22;35277;49.890;8.222;2024-02-16T05:10:29;22.70;69.50
2995;DHT22;35277;49.890;8.222;2024-02-16T05:12:57;22.70;69.50
2995;DHT22;35277;49.890;8.222;2024-02-16T05:15:27;22.70;69.50
2995;DHT22;35277;49.890;8.222;2024-02-16T05:17:55;22.70;69.50
2995;DHT22;35277;49.890;8.222;2024-02-16T05:20:24;22.70;69.40
2995;DHT22;35277;49.890;8.222;2024-02-16T05:22:52;22.70;69.40
2995;DHT22;35277;49.890;8.222;2024-02-16T05:25:20;22.70;69.40
2995;DHT22;35277;49.890;8.222;2024-02-16T05:27:48;22.70;69.30
2995;DHT22;35277;49.890;8.222;2024-02-16T05:30:16;22.70;69.60
2995;DHT22;35277;49.890;8.222;2024-02-16T05:32:47;22.70;69.30
2995;DHT22;35277;49.890;8.222;2024-02-16T05:35:15;22.70;69.30
2995;DHT22;35277;49.890;8.222;2024-02-16T05:37:44;22.70;69.20
2995;DHT22;35277;49.890;8.222;2024-02-16T05:40:15;22.70;69.20
2995;DHT22;35277;49.890;8.222;2024-02-16T05:42:51;22.70;69.20
2995;DHT22;35277;49.890;8.222;2024-02-16T05:45:19;22.70;69.10
2995;DHT22;35277;49.890;8.222;2024-02-16T05:47:50;22.70;69.20
2995;DHT22;35277;49.890;8.222;2024-02-16T05:50:20;22.70;69.10
2995;DHT22;35277;49.890;8.222;2024-02-16T05:52:49;22.70;69.10
2995;DHT22;35277;49.890;8.222;2024-02-16T05:55:18;22.70;69.10
2995;DHT22;35277;49.890;8.222;2024-02-16T05:57:46;22.70;69.10
2995;DHT22;35277;49.890;8.222;2024-02-16T06:00:14;22.70;69.10
2995;DHT22;35277;49.890;8.222;2024-02-16T06:02:43;22.70;69.00
2995;DHT22;35277;49.890;8.222;2024-02-16T06:05:13;22.70;69.00
2995;DHT22;35277;49.890;8.222;2024-02-16T06:07:40;22.70;69.00
2995;DHT22;35277;49.890;8.222;2024-02-16T06:10:09;22.70;69.00
2995;DHT22;35277;49.890;8.222;2024-02-16T06:12:38;22.70;68.90
2995;DHT22;35277;49.890;8.222;2024-02-16T06:15:07;22.70;69.00
2995;DHT22;35277;49.890;8.222;2024-02-16T06:17:35;22.70;69.10
2995;DHT22;35277;49.890;8.222;2024-02-16T06:20:04;22.70;69.60
2995;DHT22;35277;49.890;8.222;2024-02-16T06:22:37;22.70;69.80
2995;DHT22;35277;49.890;8.222;2024-02-16T06:25:05;22.70;70.10
2995;DHT22;35277;49.890;8.222;2024-02-16T06:27:33;22.70;70.20
2995;DHT22;35277;49.890;8.222;2024-02-16T06:30:02;22.70;70.30
2995;DHT22;35277;49.890;8.222;2024-02-16T06:32:30;22.80;70.50
2995;DHT22;35277;49.890;8.222;2024-02-16T06:34:58;22.80;70.70
2995;DHT22;35277;49.890;8.222;2024-02-16T06:37:26;22.80;70.80
2995;DHT22;35277;49.890;8.222;2024-02-16T06:39:55;22.80;70.90
2995;DHT22;35277;49.890;8.222;2024-02-16T06:42:23;22.80;70.90
2995;DHT22;35277;49.890;8.222;2024-02-16T06:44:51;22.80;71.00
2995;DHT22;35277;49.890;8.222;2024-02-16T06:47:19;22.80;71.00
2995;DHT22;35277;49.890;8.222;2024-02-16T06:49:47;22.80;71.00
2995;DHT22;35277;49.890;8.222;2024-02-16T06:52:15;22.80;71.00
2995;DHT22;35277;49.890;8.222;2024-02-16T06:54:43;22.80;71.00
2995;DHT22;35277;49.890;8.222;2024-02-16T06:57:13;22.80;71.00
2995;DHT22;35277;49.890;8.222;2024-02-16T06:59:40;22.80;70.90
2995;DHT22;35277;49.890;8.222;2024-02-16T07:02:08;22.80;70.80
2995;DHT22;35277;49.890;8.222;2024-02-16T07:04:39;22.80;70.80
2995;DHT22;35277;49.890;8.222;2024-02-16T07:07:07;22.80;70.80
2995;DHT22;35277;49.890;8.222;2024-02-16T07:09:35;22.80;70.80
2995;DHT22;35277;49.890;8.222;2024-02-16T07:12:07;22.80;70.70
2995;DHT22;35277;49.890;8.222;2024-02-16T07:14:36;22.80;70.70
2995;DHT22;35277;49.890;8.222;2024-02-16T07:17:04;22.80;70.60
2995;DHT22;35277;49.890;8.222;2024-02-16T07:19:36;22.80;70.50
2995;DHT22;35277;49.890;8.222;2024-02-16T07:22:04;22.80;70.50
2995;DHT22;35277;49.890;8.222;2024-02-16T07:24:33;22.80;70.40
2995;DHT22;35277;49.890;8.222;2024-02-16T07:27:01;22.80;70.40
2995;DHT22;35277;49.890;8.222;2024-02-16T07:29:29;22.80;70.40
2995;DHT22;35277;49.890;8.222;2024-02-16T07:31:58;22.80;70.40
2995;DHT22;35277;49.890;8.222;2024-02-16T07:34:26;22.80;70.30
2995;DHT22;35277;49.890;8.222;2024-02-16T07:36:55;22.80;70.30
2995;DHT22;35277;49.890;8.222;2024-02-16T07:39:23;22.80;70.20
2995;DHT22;35277;49.890;8.222;2024-02-16T07:41:52;22.80;70.10
2995;DHT22;35277;49.890;8.222;2024-02-16T07:44:19;22.80;70.10
2995;DHT22;35277;49.890;8.222;2024-02-16T07:46:47;22.80;70.00
2995;DHT22;35277;49.890;8.222;2024-02-16T07:49:18;22.80;70.00
2995;DHT22;35277;49.890;8.222;2024-02-16T07:51:46;22.80;70.00
2995;DHT22;35277;49.890;8.222;2024-02-16T07:54:15;22.80;70.00
2995;DHT22;35277;49.890;8.222;2024-02-16T07:56:43;22.80;70.00
2995;DHT22;35277;49.890;8.222;2024-02-16T07:59:11;22.80;69.90
2995;DHT22;35277;49.890;8.222;2024-02-16T08:01:38;22.80;70.00
2995;DHT22;35277;49.890;8.222;2024-02-16T08:04:07;22.80;69.90
2995;DHT22;35277;49.890;8.222;2024-02-16T08:06:36;22.80;70.00
2995;DHT22;35277;49.890;8.222;2024-02-16T08:09:04;22.80;70.00
2995;DHT22;35277;49.890;8.222;2024-02-16T08:11:33;22.80;69.90
2995;DHT22;35277;49.890;8.222;2024-02-16T08:14:00;22.80;69.90
2995;DHT22;35277;49.890;8.222;2024-02-16T08:16:29;22.80;69.90
2995;DHT22;35277;49.890;8.222;2024-02-16T08:18:57;22.80;69.90
2995;DHT22;35277;49.890;8.222;2024-02-16T08:21:25;22.80;69.80
2995;DHT22;35277;49.890;8.222;2024-02-16T08:23:54;22.80;70.60
2995;DHT22;35277;49.890;8.222;2024-02-16T08:26:22;22.80;69.80
2995;DHT22;35277;49.890;8.222;2024-02-16T08:28:50;22.80;69.90
2995;DHT22;35277;49.890;8.222;2024-02-16T08:31:18;22.80;69.90
2995;DHT22;35277;49.890;8.222;2024-02-16T08:33:46;22.80;69.80
2995;DHT22;35277;49.890;8.222;2024-02-16T08:36:15;22.80;70.60
2995;DHT22;35277;49.890;8.222;2024-02-16T08:38:43;22.80;69.80
2995;DHT22;35277;49.890;8.222;2024-02-16T08:41:12;22.80;69.80
2995;DHT22;35277;49.890;8.222;2024-02-16T08:43:39;22.80;69.80
2995;DHT22;35277;49.890;8.222;2024-02-16T08:46:07;22.80;69.80
2995;DHT22;35277;49.890;8.222;2024-02-16T08:48:35;22.80;69.70
2995;DHT22;35277;49.890;8.222;2024-02-16T08:51:03;22.80;69.70
2995;DHT22;35277;49.890;8.222;2024-02-16T08:53:32;22.80;69.70
2995;DHT22;35277;49.890;8.222;2024-02-16T08:56:00;22.80;69.70
2995;DHT22;35277;49.890;8.222;2024-02-16T08:58:30;22.80;69.70
2995;DHT22;35277;49.890;8.222;2024-02-16T09:00:58;22.80;69.70
2995;DHT22;35277;49.890;8.222;2024-02-16T09:03:26;22.80;69.70
2995;DHT22;35277;49.890;8.222;2024-02-16T09:05:54;22.80;69.70
2995;DHT22;35277;49.890;8.222;2024-02-16T09:08:22;22.80;69.60
2995;DHT22;35277;49.890;8.222;2024-02-16T09:10:49;22.80;70.50
2995;DHT22;35277;49.890;8.222;2024-02-16T09:13:18;22.80;69.70
2995;DHT22;35277;49.890;8.222;2024-02-16T09:16:01;22.80;69.70
2995;DHT22;35277;49.890;8.222;2024-02-16T09:18:30;22.80;69.70
2995;DHT22;35277;49.890;8.222;2024-02-16T09:20:58;22.80;69.70
2995;DHT22;35277;49.890;8.222;2024-02-16T09:23:26;22.80;69.80
2995;DHT22;35277;49.890;8.222;2024-02-16T09:25:54;22.80;69.80
2995;DHT22;35277;49.890;8.222;2024-02-16T09:28:22;22.80;69.90
2995;DHT22;35277;49.890;8.222;2024-02-16T09:30:56;22.80;69.90
2995;DHT22;35277;49.890;8.222;2024-02-16T09:33:25;22.80;69.80
2995;DHT22;35277;49.890;8.222;2024-02-16T09:35:54;22.80;69.90
2995;DHT22;35277;49.890;8.222;2024-02-16T09:38:22;22.80;69.90
2995;DHT22;35277;49.890;8.222;2024-02-16T09:40:50;22.80;69.90
2995;DHT22;35277;49.890;8.222;2024-02-16T09:43:24;22.80;69.90
2995;DHT22;35277;49.890;8.222;2024-02-16T09:45:54;22.80;70.00
2995;DHT22;35277;49.890;8.222;2024-02-16T09:48:22;22.80;70.00
2995;DHT22;35277;49.890;8.222;2024-02-16T09:50:53;22.80;70.00
2995;DHT22;35277;49.890;8.222;2024-02-16T09:53:24;22.80;70.00
2995;DHT22;35277;49.890;8.222;2024-02-16T09:55:52;22.80;70.00
2995;DHT22;35277;49.890;8.222;2024-02-16T09:58:21;22.80;70.00
2995;DHT22;35277;49.890;8.222;2024-02-16T10:00:49;22.80;70.00
2995;DHT22;35277;49.890;8.222;2024-02-16T10:03:25;22.80;70.00
2995;DHT22;35277;49.890;8.222;2024-02-16T10:06:04;22.80;70.00
2995;DHT22;35277;49.890;8.222;2024-02-16T10:08:33;22.90;70.10
2995;DHT22;35277;49.890;8.222;2024-02-16T10:11:02;22.90;70.20
2995;DHT22;35277;49.890;8.222;2024-02-16T10:13:30;22.80;70.00
2995;DHT22;35277;49.890;8.222;2024-02-16T10:16:05;22.80;70.10
2995;DHT22;35277;49.890;8.222;2024-02-16T10:18:35;22.90;70.20
2995;DHT22;35277;49.890;8.222;2024-02-16T10:21:05;22.90;70.20
2995;DHT22;35277;49.890;8.222;2024-02-16T10:23:34;22.90;70.20
2995;DHT22;35277;49.890;8.222;2024-02-16T10:26:10;22.90;70.20
2995;DHT22;35277;49.890;8.222;2024-02-16T10:28:38;22.80;70.30
2995;DHT22;35277;49.890;8.222;2024-02-16T10:31:06;22.90;70.50
2995;DHT22;35277;49.890;8.222;2024-02-16T10:33:34;22.90;70.70
2995;DHT22;35277;49.890;8.222;2024-02-16T10:36:05;22.90;70.80
2995;DHT22;35277;49.890;8.222;2024-02-16T10:38:35;22.90;71.10
2995;DHT22;35277;49.890;8.222;2024-02-16T10:41:05;22.90;71.50
2995;DHT22;35277;49.890;8.222;2024-02-16T10:43:34;22.90;71.80
2995;DHT22;35277;49.890;8.222;2024-02-16T10:46:01;22.90;72.10
2995;DHT22;35277;49.890;8.222;2024-02-16T10:48:30;22.90;72.30
2995;DHT22;35277;49.890;8.222;2024-02-16T10:50:58;22.90;72.40
2995;DHT22;35277;49.890;8.222;2024-02-16T10:53:29;22.90;72.40
2995;DHT22;35277;49.890;8.222;2024-02-16T10:55:58;22.90;72.40
2995;DHT22;35277;49.890;8.222;2024-02-16T10:58:27;22.90;72.40
2995;DHT22;35277;49.890;8.222;2024-02-16T11:00:56;23.00;72.40
2995;DHT22;35277;49.890;8.222;2024-02-16T11:03:25;23.00;72.40
2995;DHT22;35277;49.890;8.222;2024-02-16T11:05:55;22.90;72.40
2995;DHT22;35277;49.890;8.222;2024-02-16T11:08:25;22.90;72.30
2995;DHT22;35277;49.890;8.222;2024-02-16T11:10:58;22.90;72.40
2995;DHT22;35277;49.890;8.222;2024-02-16T11:13:28;22.90;72.40
2995;DHT22;35277;49.890;8.222;2024-02-16T11:16:00;22.90;72.30
2995;DHT22;35277;49.890;8.222;2024-02-16T11:18:30;22.90;72.40
2995;DHT22;35277;49.890;8.222;2024-02-16T11:21:00;22.90;72.10
2995;DHT22;35277;49.890;8.222;2024-02-16T11:23:30;22.90;72.00
2995;DHT22;35277;49.890;8.222;2024-02-16T11:26:03;22.90;71.90
2995;DHT22;35277;49.890;8.222;2024-02-16T11:28:33;22.90;71.80
2995;DHT22;35277;49.890;8.222;2024-02-16T11:31:01;22.90;71.70
2995;DHT22;35277;49.890;8.222;2024-02-16T11:33:30;22.90;71.70
2995;DHT22;35277;49.890;8.222;2024-02-16T11:35:59;22.90;71.70
2995;DHT22;35277;49.890;8.222;2024-02-16T11:38:27;22.90;71.60
2995;DHT22;35277;49.890;8.222;2024-02-16T11:40:59;22.90;71.50
2995;DHT22;35277;49.890;8.222;2024-02-16T11:43:30;22.90;71.40
2995;DHT22;35277;49.890;8.222;2024-02-16T11:45:58;22.90;71.30
2995;DHT22;35277;49.890;8.222;2024-02-16T11:48:26;22.90;71.30
2995;DHT22;35277;49.890;8.222;2024-02-16T11:50:59;22.90;71.30
2995;DHT22;35277;49.890;8.222;2024-02-16T11:53:28;22.90;71.30
2995;DHT22;35277;49.890;8.222;2024-02-16T11:55:56;22.90;71.20
2995;DHT22;35277;49.890;8.222;2024-02-16T11:58:25;22.90;71.20
2995;DHT22;35277;49.890;8.222;2024-02-16T12:00:53;22.90;71.20
2995;DHT22;35277;49.890;8.222;2024-02-16T12:03:26;22.90;71.20
2995;DHT22;35277;49.890;8.222;2024-02-16T12:05:56;22.90;71.10
2995;DHT22;35277;49.890;8.222;2024-02-16T12:08:31;22.90;71.10
2995;DHT22;35277;49.890;8.222;2024-02-16T12:10:59;23.00;71.40
2995;DHT22;35277;49.890;8.222;2024-02-16T12:13:28;23.00;71.30
2995;DHT22;35277;49.890;8.222;2024-02-16T12:15:57;23.00;71.30
2995;DHT22;35277;49.890;8.222;2024-02-16T12:18:25;23.00;71.30
2995;DHT22;35277;49.890;8.222;2024-02-16T12:20:58;23.00;71.30
2995;DHT22;35277;49.890;8.222;2024-02-16T12:23:26;23.10;71.50
2995;DHT22;35277;49.890;8.222;2024-02-16T12:25:54;23.10;71.40
2995;DHT22;35277;49.890;8.222;2024-02-16T12:28:25;23.10;71.40
2995;DHT22;35277;49.890;8.222;2024-02-16T12:30:54;23.10;71.40
2995;DHT22;35277;49.890;8.222;2024-02-16T12:33:25;23.20;71.40
2995;DHT22;35277;49.890;8.222;2024-02-16T12:35:53;23.20;71.50
2995;DHT22;35277;49.890;8.222;2024-02-16T12:38:21;23.20;71.50
2995;DHT22;35277;49.890;8.222;2024-02-16T12:40:49;23.20;71.60
2995;DHT22;35277;49.890;8.222;2024-02-16T12:43:17;23.20;71.70
2995;DHT22;35277;49.890;8.222;2024-02-16T12:45:46;23.30;71.90
2995;DHT22;35277;49.890;8.222;2024-02-16T12:48:14;23.30;72.00
2995;DHT22;35277;49.890;8.222;2024-02-16T12:50:44;23.30;72.10
2995;DHT22;35277;49.890;8.222;2024-02-16T12:53:13;23.30;72.20
2995;DHT22;35277;49.890;8.222;2024-02-16T12:55:41;23.30;72.10
2995;DHT22;35277;49.890;8.222;2024-02-16T12:58:09;23.30;72.00
2995;DHT22;35277;49.890;8.222;2024-02-16T13:00:37;23.30;72.20
2995;DHT22;35277;49.890;8.222;2024-02-16T13:03:05;23.40;72.40
2995;DHT22;35277;49.890;8.222;2024-02-16T13:05:33;23.40;73.30
2995;DHT22;35277;49.890;8.222;2024-02-16T13:08:02;23.40;72.40
2995;DHT22;35277;49.890;8.222;2024-02-16T13:10:30;23.40;72.60
2995;DHT22;35277;49.890;8.222;2024-02-16T13:12:58;23.40;72.60
2995;DHT22;35277;49.890;8.222;2024-02-16T13:15:26;23.40;72.50
2995;DHT22;35277;49.890;8.222;2024-02-16T13:17:55;23.40;72.40
2995;DHT22;35277;49.890;8.222;2024-02-16T13:20:23;23.40;72.30
2995;DHT22;35277;49.890;8.222;2024-02-16T13:22:51;23.40;72.30
2995;DHT22;35277;49.890;8.222;2024-02-16T13:25:21;23.40;72.40
2995;DHT22;35277;49.890;8.222;2024-02-16T13:27:48;23.40;72.50
2995;DHT22;35277;49.890;8.222;2024-02-16T13:30:16;23.40;72.40
2995;DHT22;35277;49.890;8.222;2024-02-16T13:32:44;23.50;72.40
2995;DHT22;35277;49.890;8.222;2024-02-16T13:35:13;23.50;72.30
2995;DHT22;35277;49.890;8.222;2024-02-16T13:37:46;23.50;72.20
2995;DHT22;35277;49.890;8.222;2024-02-16T13:40:14;23.50;72.10
2995;DHT22;35277;49.890;8.222;2024-02-16T13:42:45;23.50;72.10
2995;DHT22;35277;49.890;8.222;2024-02-16T13:45:13;23.50;72.00
2995;DHT22;35277;49.890;8.222;2024-02-16T13:47:41;23.50;72.00
2995;DHT22;35277;49.890;8.222;2024-02-16T13:50:10;23.50;71.90
2995;DHT22;35277;49.890;8.222;2024-02-16T13:52:38;23.50;71.90
2995;DHT22;35277;49.890;8.222;2024-02-16T13:55:07;23.40;71.80
2995;DHT22;35277;49.890;8.222;2024-02-16T13:57:35;23.40;71.80
2995;DHT22;35277;49.890;8.222;2024-02-16T14:00:08;23.40;71.70
2995;DHT22;35277;49.890;8.222;2024-02-16T14:02:38;23.40;71.80
2995;DHT22;35277;49.890;8.222;2024-02-16T14:05:06;23.30;71.70
2995;DHT22;35277;49.890;8.222;2024-02-16T14:07:34;23.30;71.70
2995;DHT22;35277;49.890;8.222;2024-02-16T14:10:16;23.40;71.80
2995;DHT22;35277;49.890;8.222;2024-02-16T14:12:45;23.30;71.70
2995;DHT22;35277;49.890;8.222;2024-02-16T14:15:15;23.30;71.70
2995;DHT22;35277;49.890;8.222;2024-02-16T14:17:43;23.30;71.70
2995;DHT22;35277;49.890;8.222;2024-02-16T14:20:11;23.30;71.80
2995;DHT22;35277;49.890;8.222;2024-02-16T14:22:39;23.30;71.80
2995;DHT22;35277;49.890;8.222;2024-02-16T14:25:07;23.30;71.80
2995;DHT22;35277;49.890;8.222;2024-02-16T14:27:37;23.30;72.50
2995;DHT22;35277;49.890;8.222;2024-02-16T14:30:06;23.30;71.80
2995;DHT22;35277;49.890;8.222;2024-02-16T14:32:35;23.30;71.80
2995;DHT22;35277;49.890;8.222;2024-02-16T14:35:04;23.30;71.70
2995;DHT22;35277;49.890;8.222;2024-02-16T14:37:32;23.30;71.80
2995;DHT22;35277;49.890;8.222;2024-02-16T14:40:00;23.30;71.70
2995;DHT22;35277;49.890;8.222;2024-02-16T14:42:28;23.30;71.70
2995;DHT22;35277;49.890;8.222;2024-02-16T14:44:56;23.20;71.70
2995;DHT22;35277;49.890;8.222;2024-02-16T14:47:24;23.20;71.70
2995;DHT22;35277;49.890;8.222;2024-02-16T14:49:53;23.20;71.60
2995;DHT22;35277;49.890;8.222;2024-02-16T14:52:21;23.20;71.70
2995;DHT22;35277;49.890;8.222;2024-02-16T14:54:49;23.20;71.60
2995;DHT22;35277;49.890;8.222;2024-02-16T14:57:16;23.20;71.60
2995;DHT22;35277;49.890;8.222;2024-02-16T14:59:46;23.20;71.70
2995;DHT22;35277;49.890;8.222;2024-02-16T15:02:14;23.20;71.70
2995;DHT22;35277;49.890;8.222;2024-02-16T15:04:42;23.10;71.60
2995;DHT22;35277;49.890;8.222;2024-02-16T15:07:11;23.10;71.60
2995;DHT22;35277;49.890;8.222;2024-02-16T15:09:39;23.10;71.60
2995;DHT22;35277;49.890;8.222;2024-02-16T15:12:07;23.10;71.60
2995;DHT22;35277;49.890;8.222;2024-02-16T15:14:35;23.10;71.60
2995;DHT22;35277;49.890;8.222;2024-02-16T15:17:03;23.10;71.50
2995;DHT22;35277;49.890;8.222;2024-02-16T15:19:32;23.10;71.50
2995;DHT22;35277;49.890;8.222;2024-02-16T15:22:00;23.10;71.50
2995;DHT22;35277;49.890;8.222;2024-02-16T15:24:30;23.10;71.50
2995;DHT22;35277;49.890;8.222;2024-02-16T15:26:57;23.10;71.50
2995;DHT22;35277;49.890;8.222;2024-02-16T15:29:26;23.10;71.50
2995;DHT22;35277;49.890;8.222;2024-02-16T15:31:54;23.10;71.50
2995;DHT22;35277;49.890;8.222;2024-02-16T15:34:23;23.10;71.50
2995;DHT22;35277;49.890;8.222;2024-02-16T15:36:51;23.10;71.50
2995;DHT22;35277;49.890;8.222;2024-02-16T15:39:18;23.10;71.50
2995;DHT22;35277;49.890;8.222;2024-02-16T15:41:47;23.00;71.40
2995;DHT22;35277;49.890;8.222;2024-02-16T15:44:15;23.10;71.50
2995;DHT22;35277;49.890;8.222;2024-02-16T15:46:43;23.00;71.40
2995;DHT22;35277;49.890;8.222;2024-02-16T15:49:11;23.00;71.40
2995;DHT22;35277;49.890;8.222;2024-02-16T15:51:39;23.00;71.40
2995;DHT22;35277;49.890;8.222;2024-02-16T15:54:07;23.00;71.40